createdAt,value
2023-06-22T00:01:55.383Z,23.19
2023-06-22T00:04:40.755Z,23.18
2023-06-22T00:07:26.152Z,23.19
2023-06-22T00:10:11.449Z,23.19
2023-06-22T00:12:56.769Z,23.18
2023-06-22T00:15:42.872Z,23.18
2023-06-22T00:18:29.348Z,23.17
2023-06-22T00:21:15.251Z,23.18
2023-06-22T00:24:00.585Z,23.17
2023-06-22T00:26:45.872Z,23.16
2023-06-22T00:29:31.303Z,23.17
2023-06-22T00:32:18.324Z,23.15
2023-06-22T00:35:06.574Z,23.15
2023-06-22T00:37:58.767Z,23.15
2023-06-22T00:40:44.448Z,23.15
2023-06-22T00:43:29.773Z,23.14
2023-06-22T00:46:15.604Z,23.14
2023-06-22T00:49:02.596Z,23.14
2023-06-22T00:51:48.918Z,23.14
2023-06-22T00:54:36.049Z,23.14
2023-06-22T00:57:22.011Z,23.13
2023-06-22T01:00:10.182Z,23.14
2023-06-22T01:02:55.933Z,23.12
2023-06-22T01:05:41.509Z,23.14
2023-06-22T01:08:45.776Z,23.13
2023-06-22T01:11:39.509Z,23.12
2023-06-22T01:14:33.252Z,23.11
2023-06-22T01:17:20.793Z,23.11
2023-06-22T01:20:09.454Z,23.11
2023-06-22T01:23:29.049Z,23.12
2023-06-22T01:26:42.940Z,23.10
2023-06-22T01:29:30.368Z,23.10
2023-06-22T01:32:16.188Z,23.10
2023-06-22T01:35:05.688Z,23.09
2023-06-22T01:37:51.518Z,23.09
2023-06-22T01:40:38.431Z,23.09
2023-06-22T01:43:26.437Z,23.08
2023-06-22T01:46:13.101Z,23.09
2023-06-22T01:48:59.023Z,23.09
2023-06-22T01:51:44.816Z,23.08
2023-06-22T01:54:30.745Z,23.07
2023-06-22T01:57:16.485Z,23.07
2023-06-22T02:00:13.141Z,23.08
2023-06-22T02:03:07.065Z,23.08
2023-06-22T02:06:02.831Z,23.07
2023-06-22T02:08:53.186Z,23.07
2023-06-22T02:11:45.614Z,23.07
2023-06-22T02:14:31.164Z,23.08
2023-06-22T02:17:18.735Z,23.06
2023-06-22T02:20:09.248Z,23.06
2023-06-22T02:22:54.849Z,23.06
2023-06-22T02:25:40.788Z,23.03
2023-06-22T02:28:26.370Z,23.04
2023-06-22T02:31:12.214Z,23.04
2023-06-22T02:33:59.426Z,23.02
2023-06-22T02:36:51.795Z,23.02
2023-06-22T02:39:37.902Z,23.01
2023-06-22T02:42:23.336Z,23.00
2023-06-22T02:45:12.433Z,23.02
2023-06-22T02:47:58.629Z,22.99
2023-06-22T02:50:44.163Z,23.00
2023-06-22T02:53:29.436Z,22.99
2023-06-22T02:56:14.803Z,22.98
2023-06-22T02:59:02.982Z,22.98
2023-06-22T03:01:54.409Z,22.97
2023-06-22T03:04:50.321Z,22.97
2023-06-22T03:07:36.032Z,22.97
2023-06-22T03:10:21.301Z,22.97
2023-06-22T03:13:06.712Z,22.97
2023-06-22T03:15:52.173Z,22.97
2023-06-22T03:18:38.132Z,22.97
2023-06-22T03:21:24.280Z,22.95
2023-06-22T03:24:11.267Z,22.94
2023-06-22T03:26:58.742Z,22.95
2023-06-22T03:29:44.348Z,22.93
2023-06-22T03:32:30.489Z,22.95
2023-06-22T03:35:18.243Z,22.93
2023-06-22T03:38:03.753Z,22.93
2023-06-22T03:40:49.902Z,22.93
2023-06-22T03:43:35.184Z,22.93
2023-06-22T03:46:23.063Z,22.93
2023-06-22T03:49:08.924Z,22.93
2023-06-22T03:51:54.122Z,22.93
2023-06-22T03:54:39.287Z,22.92
2023-06-22T03:57:24.682Z,22.95
2023-06-22T04:00:11.400Z,22.93
2023-06-22T04:03:01.200Z,22.93
2023-06-22T04:05:47.427Z,22.93
2023-06-22T04:08:33.132Z,22.92
2023-06-22T04:11:19.626Z,22.89
2023-06-22T04:14:05.320Z,22.90
2023-06-22T04:16:50.546Z,22.90
2023-06-22T04:19:36.175Z,22.90
2023-06-22T04:22:21.552Z,22.91
2023-06-22T04:25:08.686Z,22.90
2023-06-22T04:27:54.213Z,22.91
2023-06-22T04:30:47.380Z,22.92
2023-06-22T04:33:32.782Z,22.94
2023-06-22T04:36:18.260Z,22.97
2023-06-22T04:39:03.711Z,23.00
2023-06-22T04:41:49.210Z,23.02
2023-06-22T04:44:34.655Z,23.07
2023-06-22T04:47:20.642Z,23.10
2023-06-22T04:50:08.653Z,23.13
2023-06-22T04:52:54.308Z,23.16
2023-06-22T04:55:42.868Z,23.19
2023-06-22T04:58:33.623Z,23.17
2023-06-22T05:01:19.030Z,23.18
2023-06-22T05:04:06.552Z,23.19
2023-06-22T05:06:53.388Z,23.20
2023-06-22T05:09:38.696Z,23.22
2023-06-22T05:12:23.967Z,23.22
2023-06-22T05:15:09.807Z,23.24
2023-06-22T05:17:55.309Z,23.24
2023-06-22T05:20:40.572Z,23.26
2023-06-22T05:23:25.911Z,23.28
2023-06-22T05:26:11.370Z,23.28
2023-06-22T05:28:57.038Z,23.27
2023-06-22T05:31:42.771Z,23.26
2023-06-22T05:34:28.504Z,23.26
2023-06-22T05:37:14.057Z,23.25
2023-06-22T05:39:59.707Z,23.24
2023-06-22T05:42:45.183Z,23.23
2023-06-22T05:45:30.409Z,23.23
2023-06-22T05:48:15.908Z,23.23
2023-06-22T05:51:01.100Z,23.22
2023-06-22T05:53:50.535Z,23.20
2023-06-22T05:56:36.096Z,23.19
2023-06-22T05:59:21.770Z,23.18
2023-06-22T06:02:07.332Z,23.18
2023-06-22T06:04:53.806Z,23.17
2023-06-22T06:07:39.029Z,23.16
2023-06-22T06:10:24.429Z,23.15
2023-06-22T06:13:09.782Z,23.15
2023-06-22T06:15:56.655Z,23.13
2023-06-22T06:18:41.794Z,23.11
2023-06-22T06:21:29.576Z,23.12
2023-06-22T06:24:16.280Z,23.10
2023-06-22T06:27:01.483Z,23.12
2023-06-22T06:29:49.150Z,23.10
2023-06-22T06:32:34.768Z,23.10
2023-06-22T06:35:20.178Z,23.08
2023-06-22T06:38:05.506Z,23.10
2023-06-22T06:40:50.893Z,23.09
2023-06-22T06:43:36.176Z,23.08
2023-06-22T06:46:21.732Z,23.06
2023-06-22T06:49:07.388Z,23.05
2023-06-22T06:51:52.809Z,23.06
2023-06-22T06:54:37.939Z,23.05
2023-06-22T06:57:23.731Z,23.05
2023-06-22T07:00:12.969Z,23.04
2023-06-22T07:02:58.365Z,23.05
2023-06-22T07:05:43.554Z,23.04
2023-06-22T07:08:29.913Z,23.04
2023-06-22T07:11:15.186Z,23.04
2023-06-22T07:14:02.428Z,23.03
2023-06-22T07:16:47.579Z,23.04
2023-06-22T07:19:34.703Z,23.03
2023-06-22T07:22:20.507Z,23.06
2023-06-22T07:25:10.255Z,23.06
2023-06-22T07:28:04.525Z,23.05
2023-06-22T07:30:49.778Z,23.04
2023-06-22T07:33:35.009Z,23.07
2023-06-22T07:36:20.377Z,23.08
2023-06-22T07:39:06.142Z,23.08
2023-06-22T07:41:51.340Z,23.08
2023-06-22T07:44:36.390Z,23.09
2023-06-22T07:47:26.150Z,23.10
2023-06-22T07:50:11.839Z,23.11
2023-06-22T07:52:57.064Z,23.12
2023-06-22T07:55:42.479Z,23.11
2023-06-22T07:58:27.817Z,23.12
2023-06-22T08:01:13.740Z,23.14
2023-06-22T08:03:59.210Z,23.17
2023-06-22T08:06:44.884Z,23.16
2023-06-22T08:09:32.019Z,23.18
2023-06-22T08:12:17.701Z,23.19
2023-06-22T08:15:03.106Z,23.19
2023-06-22T08:17:48.757Z,23.19
2023-06-22T08:20:34.678Z,23.21
2023-06-22T08:23:20.051Z,23.22
2023-06-22T08:26:05.492Z,23.23
2023-06-22T08:28:51.176Z,23.23
2023-06-22T08:31:36.720Z,23.28
2023-06-22T08:34:24.217Z,23.28
2023-06-22T08:37:10.276Z,23.31
2023-06-22T08:39:55.818Z,23.32
2023-06-22T08:42:41.883Z,23.32
2023-06-22T08:45:28.270Z,23.33
2023-06-22T08:48:16.072Z,23.37
2023-06-22T08:51:01.304Z,23.38
2023-06-22T08:53:46.550Z,23.39
2023-06-22T08:56:31.792Z,23.41
2023-06-22T08:59:17.173Z,23.44
2023-06-22T09:02:02.410Z,23.42
2023-06-22T09:04:47.822Z,23.43
2023-06-22T09:07:35.587Z,23.49
2023-06-22T09:10:21.377Z,23.50
2023-06-22T09:13:06.987Z,23.51
2023-06-22T09:15:53.421Z,23.52
2023-06-22T09:18:38.959Z,23.54
2023-06-22T09:21:24.728Z,23.58
2023-06-22T09:24:10.235Z,23.58
2023-06-22T09:26:55.529Z,23.59
2023-06-22T09:29:41.004Z,23.59
2023-06-22T09:32:26.984Z,23.60
2023-06-22T09:35:14.492Z,23.61
2023-06-22T09:37:59.850Z,23.62
2023-06-22T09:40:45.138Z,23.61
2023-06-22T09:43:32.754Z,23.61
2023-06-22T09:46:18.293Z,23.62
2023-06-22T09:49:03.507Z,23.63
2023-06-22T09:51:48.710Z,23.67
2023-06-22T09:54:33.838Z,23.65
2023-06-22T09:57:19.370Z,23.66
2023-06-22T10:00:06.957Z,23.64
2023-06-22T10:02:53.957Z,23.70
2023-06-22T10:05:39.653Z,23.73
2023-06-22T10:08:24.993Z,23.75
2023-06-22T10:11:10.286Z,23.76
2023-06-22T10:13:56.188Z,23.80
2023-06-22T10:16:42.209Z,23.80
2023-06-22T10:19:28.307Z,23.83
2023-06-22T10:22:13.732Z,23.82
2023-06-22T10:24:58.940Z,23.82
2023-06-22T10:27:45.232Z,23.84
2023-06-22T10:30:32.214Z,23.85
2023-06-22T10:33:17.554Z,23.86
2023-06-22T10:36:02.768Z,23.89
2023-06-22T10:38:48.876Z,23.89
2023-06-22T10:41:34.313Z,23.90
2023-06-22T10:44:19.566Z,23.90
2023-06-22T10:47:04.989Z,23.90
2023-06-22T10:49:50.660Z,23.92
2023-06-22T10:52:35.989Z,23.94
2023-06-22T10:55:21.229Z,23.98
2023-06-22T10:58:08.593Z,23.99
2023-06-22T11:00:54.339Z,23.99
2023-06-22T11:03:39.676Z,23.99
2023-06-22T11:06:24.978Z,24.00
2023-06-22T11:09:23.792Z,24.01
2023-06-22T11:12:12.310Z,24.02
2023-06-22T11:14:59.665Z,24.02
2023-06-22T11:17:45.382Z,24.02
2023-06-22T11:20:30.724Z,24.05
2023-06-22T11:23:16.385Z,24.06
2023-06-22T11:26:01.734Z,24.06
2023-06-22T11:28:47.147Z,24.07
2023-06-22T11:31:34.455Z,24.11
2023-06-22T11:34:20.296Z,24.11
2023-06-22T11:37:05.946Z,24.11
2023-06-22T11:39:59.870Z,24.12
2023-06-22T11:42:52.166Z,24.11
2023-06-22T11:45:37.669Z,24.11
2023-06-22T11:48:22.966Z,24.11
2023-06-22T11:51:09.320Z,24.13
2023-06-22T11:53:55.281Z,24.14
2023-06-22T11:56:40.628Z,24.15
2023-06-22T11:59:26.896Z,24.15
2023-06-22T12:02:12.529Z,24.17
2023-06-22T12:04:59.276Z,24.19
2023-06-22T12:07:44.758Z,24.19
2023-06-22T12:10:30.622Z,24.19
2023-06-22T12:13:16.478Z,24.19
2023-06-22T12:16:02.151Z,24.20
2023-06-22T12:18:47.829Z,24.22
2023-06-22T12:21:33.523Z,24.24
2023-06-22T12:24:18.946Z,24.26
2023-06-22T12:27:04.821Z,24.26
2023-06-22T12:29:50.287Z,24.30
2023-06-22T12:32:35.810Z,24.35
2023-06-22T12:35:21.220Z,24.39
2023-06-22T12:38:08.357Z,24.42
2023-06-22T12:40:54.050Z,24.43
2023-06-22T12:43:39.440Z,24.44
2023-06-22T12:46:24.733Z,24.44
2023-06-22T12:49:09.931Z,24.44
2023-06-22T12:51:55.389Z,24.42
2023-06-22T12:54:53.942Z,24.45
2023-06-22T12:57:40.507Z,24.48
2023-06-22T13:00:29.018Z,24.52
2023-06-22T13:03:15.369Z,24.56
2023-06-22T13:06:00.975Z,24.60
2023-06-22T13:11:38.012Z,24.64
2023-06-22T13:14:23.673Z,24.66
2023-06-22T13:17:09.346Z,24.68
2023-06-22T13:19:54.541Z,24.73
2023-06-22T13:22:44.631Z,24.79
2023-06-22T13:25:34.851Z,24.79
2023-06-22T13:28:28.353Z,24.81
2023-06-22T13:31:16.533Z,24.85
2023-06-22T13:34:02.247Z,24.86
2023-06-22T13:36:47.600Z,24.93
2023-06-22T13:39:32.893Z,24.93
2023-06-22T13:42:18.426Z,24.93
2023-06-22T13:45:04.579Z,24.99
2023-06-22T13:47:50.003Z,25.02
2023-06-22T13:50:35.364Z,25.06
2023-06-22T13:53:21.013Z,25.10
2023-06-22T13:56:06.900Z,25.11
2023-06-22T13:58:52.629Z,25.11
2023-06-22T14:01:40.291Z,25.13
2023-06-22T14:04:26.524Z,25.12
2023-06-22T14:07:15.143Z,25.13
2023-06-22T14:10:02.379Z,25.16
2023-06-22T14:12:48.429Z,25.16
2023-06-22T14:15:34.469Z,25.19
2023-06-22T14:18:20.115Z,25.26
2023-06-22T14:21:05.493Z,25.26
2023-06-22T14:23:50.868Z,25.22
2023-06-22T14:26:36.157Z,25.24
2023-06-22T14:29:22.536Z,25.21
2023-06-22T14:32:08.894Z,25.23
2023-06-22T14:34:54.158Z,25.25
2023-06-22T14:37:39.271Z,25.30
2023-06-22T14:40:26.815Z,25.36
2023-06-22T14:43:12.868Z,25.38
2023-06-22T14:45:59.259Z,25.41
2023-06-22T14:48:45.139Z,25.45
2023-06-22T14:51:30.553Z,25.48
2023-06-22T14:54:18.108Z,25.52
2023-06-22T14:57:06.698Z,25.54
2023-06-22T14:59:55.436Z,25.50
2023-06-22T15:02:42.298Z,25.49
2023-06-22T15:05:27.568Z,25.54
2023-06-22T15:08:13.101Z,25.57
2023-06-22T15:11:03.045Z,25.59
2023-06-22T15:13:48.472Z,25.59
2023-06-22T15:16:33.673Z,25.60
2023-06-22T15:19:18.956Z,25.63
2023-06-22T15:22:06.050Z,25.64
2023-06-22T15:24:56.691Z,25.63
2023-06-22T15:27:42.195Z,25.65
2023-06-22T15:30:28.404Z,25.67
2023-06-22T15:33:14.071Z,25.70
2023-06-22T15:36:04.784Z,25.69
2023-06-22T15:38:50.774Z,25.73
2023-06-22T15:41:35.951Z,25.74
2023-06-22T15:44:22.217Z,25.75
2023-06-22T15:47:08.131Z,25.75
2023-06-22T15:49:53.572Z,25.73
2023-06-22T15:52:40.089Z,25.73
2023-06-22T15:55:25.976Z,25.70
2023-06-22T15:58:14.155Z,25.70
2023-06-22T16:00:59.762Z,25.70
2023-06-22T16:03:45.026Z,25.70
2023-06-22T16:06:30.521Z,25.74
2023-06-22T16:09:15.931Z,25.66
2023-06-22T16:12:03.222Z,25.59
2023-06-22T16:14:48.843Z,25.60
2023-06-22T16:17:38.727Z,25.59
2023-06-22T16:20:24.478Z,25.57
2023-06-22T16:23:10.543Z,25.61
2023-06-22T16:25:56.167Z,25.58
2023-06-22T16:28:41.843Z,25.59
2023-06-22T16:31:28.272Z,25.62
2023-06-22T16:34:13.764Z,25.64
2023-06-22T16:36:59.062Z,25.66
2023-06-22T16:39:44.267Z,25.67
2023-06-22T16:42:29.584Z,25.61
2023-06-22T16:45:18.281Z,25.60
2023-06-22T16:48:04.073Z,25.61
2023-06-22T16:50:49.760Z,25.56
2023-06-22T16:53:36.385Z,25.61
2023-06-22T16:56:28.291Z,25.58
2023-06-22T16:59:14.408Z,25.61
2023-06-22T17:02:01.198Z,25.59
2023-06-22T17:04:46.957Z,25.59
2023-06-22T17:07:35.173Z,25.59
2023-06-22T17:10:23.912Z,25.66
2023-06-22T17:13:09.716Z,25.62
2023-06-22T17:16:01.039Z,25.65
2023-06-22T17:18:47.474Z,25.63
2023-06-22T17:21:35.838Z,25.66
2023-06-22T17:24:21.815Z,25.66
2023-06-22T17:27:07.461Z,25.62
2023-06-22T17:30:08.901Z,25.61
2023-06-22T17:32:54.298Z,25.62
2023-06-22T17:35:53.651Z,25.61
2023-06-22T17:38:39.353Z,25.62
2023-06-22T17:41:33.801Z,25.60
2023-06-22T17:44:26.977Z,25.53
2023-06-22T17:47:12.504Z,25.56
2023-06-22T17:50:10.476Z,25.56
2023-06-22T17:52:57.276Z,25.54
2023-06-22T17:55:42.585Z,25.52
2023-06-22T17:58:27.850Z,25.50
2023-06-22T18:01:14.634Z,25.49
2023-06-22T18:04:00.379Z,25.49
2023-06-22T18:06:47.774Z,25.47
2023-06-22T18:09:34.325Z,25.44
2023-06-22T18:12:21.633Z,25.44
2023-06-22T18:15:08.511Z,25.43
2023-06-22T18:17:54.595Z,25.42
2023-06-22T18:20:41.730Z,25.40
2023-06-22T18:23:30.391Z,25.39
2023-06-22T18:26:17.445Z,25.36
2023-06-22T18:29:03.022Z,25.34
2023-06-22T18:31:48.330Z,25.33
2023-06-22T18:34:34.009Z,25.31
2023-06-22T18:37:21.038Z,25.28
2023-06-22T18:40:09.193Z,25.26
2023-06-22T18:43:01.067Z,25.23
2023-06-22T18:45:46.262Z,25.19
2023-06-22T18:48:31.574Z,25.16
2023-06-22T18:51:16.777Z,25.13
2023-06-22T18:54:07.965Z,25.08
2023-06-22T18:56:58.645Z,25.05
2023-06-22T18:59:55.587Z,25.02
2023-06-22T19:02:44.795Z,24.99
2023-06-22T19:05:43.979Z,24.96
2023-06-22T19:09:07.533Z,24.93
2023-06-22T19:12:22.996Z,24.89
2023-06-22T19:15:15.338Z,24.88
2023-06-22T19:18:14.108Z,24.86
2023-06-22T19:21:08.702Z,24.84
2023-06-22T19:23:53.856Z,24.82
2023-06-22T19:26:39.125Z,24.81
2023-06-22T19:29:24.980Z,24.81
2023-06-22T19:32:11.257Z,24.85
2023-06-22T19:34:57.279Z,24.89
2023-06-22T19:37:43.044Z,24.90
2023-06-22T19:40:28.223Z,24.92
2023-06-22T19:43:15.796Z,24.94
2023-06-22T19:46:01.889Z,24.96
2023-06-22T19:48:47.662Z,24.98
2023-06-22T19:51:36.909Z,25.00
2023-06-22T19:54:22.962Z,25.02
2023-06-22T19:57:08.547Z,25.02
2023-06-22T19:59:53.987Z,25.03
2023-06-22T20:02:45.694Z,25.06
2023-06-22T20:05:31.701Z,25.07
2023-06-22T20:08:17.636Z,25.05
2023-06-22T20:11:02.970Z,25.05
2023-06-22T20:13:49.227Z,25.07
2023-06-22T20:16:47.765Z,25.07
2023-06-22T20:19:39.944Z,25.08
2023-06-22T20:22:25.198Z,25.10
2023-06-22T20:25:10.530Z,25.11
2023-06-22T20:27:56.473Z,25.12
2023-06-22T20:31:05.816Z,25.13
2023-06-22T20:34:04.777Z,25.13
2023-06-22T20:36:51.106Z,25.13
2023-06-22T20:39:36.472Z,25.16
2023-06-22T20:42:21.977Z,25.16
2023-06-22T20:45:08.436Z,25.17
2023-06-22T20:47:58.411Z,25.17
2023-06-22T20:50:43.689Z,25.17
2023-06-22T20:53:31.553Z,25.16
2023-06-22T20:56:17.824Z,25.17
2023-06-22T20:59:03.126Z,25.16
2023-06-22T21:01:48.517Z,25.17
2023-06-22T21:04:35.818Z,25.17
2023-06-22T21:07:22.933Z,25.19
2023-06-22T21:10:08.550Z,25.19
2023-06-22T21:12:54.058Z,25.20
2023-06-22T21:15:39.314Z,25.20
2023-06-22T21:18:24.731Z,25.21
2023-06-22T21:21:10.111Z,25.19
2023-06-22T21:23:55.546Z,25.20
2023-06-22T21:26:40.640Z,25.19
2023-06-22T21:29:26.018Z,25.18
2023-06-22T21:32:11.184Z,25.16
2023-06-22T21:34:56.605Z,25.15
2023-06-22T21:37:45.907Z,25.12
2023-06-22T21:40:31.444Z,25.10
2023-06-22T21:43:16.984Z,25.08
2023-06-22T21:46:02.589Z,25.05
2023-06-22T21:48:47.658Z,25.01
2023-06-22T21:51:35.016Z,24.99
2023-06-22T21:54:20.984Z,24.98
2023-06-22T21:57:06.749Z,24.95
2023-06-22T21:59:52.258Z,24.92
2023-06-22T22:02:37.496Z,24.90
2023-06-22T22:05:23.854Z,24.88
2023-06-22T22:08:10.122Z,24.86
2023-06-22T22:10:55.356Z,24.85
2023-06-22T22:13:41.885Z,24.83
2023-06-22T22:16:27.271Z,24.81
2023-06-22T22:19:13.826Z,24.79
2023-06-22T22:21:59.202Z,24.80
2023-06-22T22:24:44.632Z,24.79
2023-06-22T22:27:30.280Z,24.77
2023-06-22T22:30:16.050Z,24.76
2023-06-22T22:33:01.600Z,24.74
2023-06-22T22:35:47.074Z,24.73
2023-06-22T22:38:35.719Z,24.72
2023-06-22T22:41:21.335Z,24.71
2023-06-22T22:44:06.582Z,24.69
2023-06-22T22:46:51.861Z,24.67
2023-06-22T22:49:37.633Z,24.64
2023-06-22T22:52:22.883Z,24.64
2023-06-22T22:55:08.429Z,24.63
2023-06-22T22:57:54.790Z,24.62
2023-06-22T23:00:40.161Z,24.60
2023-06-22T23:03:27.058Z,24.60
2023-06-22T23:06:12.372Z,24.58
2023-06-22T23:08:57.626Z,24.56
2023-06-22T23:11:43.096Z,24.56
2023-06-22T23:14:28.180Z,24.57
2023-06-22T23:17:14.547Z,24.56
2023-06-22T23:20:01.778Z,24.60
2023-06-22T23:22:54.978Z,24.61
2023-06-22T23:25:40.158Z,24.63
2023-06-22T23:28:36.712Z,24.63
2023-06-22T23:31:22.911Z,24.59
2023-06-22T23:34:08.283Z,24.59
2023-06-22T23:36:53.511Z,24.58
2023-06-22T23:39:39.139Z,24.55
2023-06-22T23:42:24.725Z,24.56
2023-06-22T23:45:10.397Z,24.55
2023-06-22T23:47:56.510Z,24.54
2023-06-22T23:50:41.802Z,24.55
2023-06-22T23:53:30.487Z,24.55
2023-06-22T23:56:16.006Z,24.52
2023-06-22T23:59:01.259Z,24.52
